• Join FlightAware (Why Join?)
  • Login
  • US Flag 
10:28AM EDT


 

Airport Tracker/Info


-or-


 

Live Flight TrackerFlight Track Log ✈ EJA947 ✈ 15-Apr-2013 ✈ KSNA - KSAN

Flight Track Log - Related Links

Times and Time Zones

All times are in EDT time to prevent confusion due to time zone crossing. See the EJA947 flight status page for this flight to view local times or setup timezone preferences in your user account.

Time Position Orientation Groundspeed Altitude Reporting Facility
EDT Latitude Longitude Course Direction KTS MPH feet Rate Location/Type
03:32PM 33.6500 -117.8833 192° South 173 199 1,600  Level Southern California TRACON
03:33PM 33.5833 -117.9000 192° South 241 277 5,600 3,660 Climbing Southern California TRACON
03:34PM 33.5167 -117.9000 180° South 301 346 9,000 2,700 Climbing Southern California TRACON
03:35PM 33.4500 -117.8167 134° Southeast 351 404 11,100 960 Climbing Southern California TRACON
03:36PM 33.3667 -117.7333 140° Southeast 431 496 11,000 -60 Descending Southern California TRACON
03:37PM 33.2833 -117.6167 130° Southeast 445 512 11,000  Level Southern California TRACON
03:38PM 33.1667 -117.5333 149° Southeast 434 499 11,000  Level Southern California TRACON
03:39PM 33.0597 -117.4414 144° Southeast 433 498 11,000 -60 Level Los Angeles Center
03:40PM 32.9667 -117.3667 146° Southeast 381 438 10,900 -780 Descending Southern California TRACON
03:41PM 32.9167 -117.3000 132° Southeast 337 388 9,700 -1,500 Descending Southern California TRACON
03:42PM 32.8500 -117.2000 128° Southeast 320 368 7,900 -1,680 Descending Southern California TRACON
03:42PM 32.8394 -117.1839 128° Southeast 322 371 7,400 -1,500 Descending Los Angeles Center
03:43PM 32.7900 -117.1161 131° Southeast 309 356 5,900 -1,440 Descending Los Angeles Center
03:44PM 32.7500 -117.0667 134° Southeast 276 318 5,000 -1,260 Descending Southern California TRACON
03:45PM 32.7333 -116.9833 103° East 251 289 4,000 -540 Descending Southern California TRACON
03:46PM 32.7000 -116.9667 157° South 203 234 4,000 -540 Level Southern California TRACON
03:47PM 32.6833 -117.0167 248° West 162 186 2,900 -1,020 Descending Southern California TRACON
03:48PM 32.7000 -117.0667 292° West 163 188 2,000 -840 Descending Southern California TRACON
03:49PM 32.7167 -117.1167 292° West 142 163 1,300 -660 Descending Southern California TRACON
03:49PM 32.7194 -117.1333 281° West 151 174 1,000 -660 Descending Los Angeles Center
03:50PM 32.7317 -117.1775 288° West 142 163 300 -720 Descending Los Angeles Center